createdAt,value
2017-08-10T00:00:33.693Z,21.77
2017-08-10T00:01:35.514Z,21.79
2017-08-10T00:02:37.335Z,21.75
2017-08-10T00:03:39.224Z,21.82
2017-08-10T00:04:41.082Z,21.87
2017-08-10T00:05:42.908Z,21.84
2017-08-10T00:06:57.063Z,21.74
2017-08-10T00:07:58.949Z,21.83
2017-08-10T00:09:00.835Z,21.82
2017-08-10T00:10:02.722Z,21.77
2017-08-10T00:11:04.544Z,21.80
2017-08-10T00:12:06.362Z,21.80
2017-08-10T00:13:08.250Z,21.79
2017-08-10T00:14:10.147Z,21.80
2017-08-10T00:15:12.032Z,21.86
2017-08-10T00:16:26.190Z,21.87
2017-08-10T00:17:28.082Z,21.75
2017-08-10T00:18:29.964Z,21.90
2017-08-10T00:19:31.849Z,21.80
2017-08-10T00:20:33.682Z,21.83
2017-08-10T00:21:35.514Z,21.83
2017-08-10T00:22:37.399Z,21.74
2017-08-10T00:23:39.288Z,21.94
2017-08-10T00:24:41.176Z,21.75
2017-08-10T00:25:55.331Z,21.74
2017-08-10T00:26:57.229Z,21.77
2017-08-10T00:27:59.113Z,21.72
2017-08-10T00:29:01.000Z,21.62
2017-08-10T00:30:02.821Z,21.49
2017-08-10T00:31:04.642Z,21.14
2017-08-10T00:32:06.534Z,20.91
2017-08-10T00:33:08.420Z,20.87
2017-08-10T00:34:10.307Z,20.70
2017-08-10T00:35:24.473Z,20.55
2017-08-10T00:36:26.358Z,20.32
2017-08-10T00:37:28.257Z,20.29
2017-08-10T00:38:30.140Z,20.20
2017-08-10T00:39:31.961Z,20.17
2017-08-10T00:40:33.786Z,20.20
2017-08-10T00:41:35.680Z,20.28
2017-08-10T00:42:37.561Z,20.51
2017-08-10T00:43:39.443Z,20.55
2017-08-10T00:44:53.602Z,20.57
2017-08-10T00:45:55.496Z,20.48
2017-08-10T00:46:57.383Z,20.28
2017-08-10T00:47:59.265Z,20.18
2017-08-10T00:49:01.093Z,20.11
2017-08-10T00:50:02.915Z,19.92
2017-08-10T00:51:04.804Z,19.94
2017-08-10T00:52:06.685Z,19.91
2017-08-10T00:53:08.568Z,19.91
2017-08-10T00:54:22.725Z,19.87
2017-08-10T00:55:24.604Z,19.86
2017-08-10T00:56:26.488Z,19.77
2017-08-10T00:57:28.370Z,19.81
2017-08-10T00:58:30.191Z,19.73
2017-08-10T00:59:32.012Z,19.62
2017-08-10T01:00:33.894Z,19.63
2017-08-10T01:01:35.780Z,19.68
2017-08-10T01:02:37.662Z,19.74
2017-08-10T01:03:51.818Z,19.77
2017-08-10T01:04:53.705Z,19.78
2017-08-10T01:05:55.580Z,19.80
2017-08-10T01:06:57.462Z,19.62
2017-08-10T01:07:59.283Z,19.58
2017-08-10T01:09:01.113Z,19.56
2017-08-10T01:10:02.995Z,19.62
2017-08-10T01:11:04.882Z,19.66
2017-08-10T01:12:06.765Z,19.69
2017-08-10T01:13:20.919Z,19.74
2017-08-10T01:14:22.799Z,19.73
2017-08-10T01:15:24.681Z,19.76
2017-08-10T01:16:26.562Z,19.81
2017-08-10T01:17:28.385Z,20.08
2017-08-10T01:18:30.216Z,20.23
2017-08-10T01:19:32.097Z,20.20
2017-08-10T01:20:33.981Z,20.17
2017-08-10T01:21:35.863Z,20.23
2017-08-10T01:22:50.021Z,20.28
2017-08-10T01:23:51.902Z,20.51
2017-08-10T01:24:53.783Z,20.51
2017-08-10T01:25:55.668Z,20.57
2017-08-10T01:26:57.496Z,20.74
2017-08-10T01:27:59.312Z,20.85
2017-08-10T01:29:01.193Z,20.94
2017-08-10T01:30:03.086Z,20.85
2017-08-10T01:31:04.968Z,20.98
2017-08-10T01:32:19.130Z,21.03
2017-08-10T01:33:21.005Z,20.91
2017-08-10T01:34:22.894Z,20.82
2017-08-10T01:35:24.769Z,20.79
2017-08-10T01:36:26.590Z,20.94
2017-08-10T01:37:28.422Z,20.85
2017-08-10T01:38:30.303Z,20.85
2017-08-10T01:39:32.194Z,20.58
2017-08-10T01:40:34.077Z,20.58
2017-08-10T01:41:48.237Z,20.54
2017-08-10T01:42:50.119Z,20.51
2017-08-10T01:43:52.000Z,20.41
2017-08-10T01:44:53.882Z,20.52
2017-08-10T01:45:55.702Z,20.41
2017-08-10T01:46:57.533Z,20.18
2017-08-10T01:47:59.417Z,20.23
2017-08-10T01:49:01.304Z,20.32
2017-08-10T01:50:03.185Z,20.38
2017-08-10T01:51:17.358Z,20.28
2017-08-10T01:52:19.238Z,20.29
2017-08-10T01:53:21.136Z,20.16
2017-08-10T01:54:23.020Z,20.18
2017-08-10T01:55:24.846Z,20.20
2017-08-10T01:56:26.670Z,20.21
2017-08-10T01:57:28.560Z,20.33
2017-08-10T01:58:30.455Z,20.41
2017-08-10T01:59:32.339Z,20.47
2017-08-10T02:00:46.499Z,20.50
2017-08-10T02:01:48.385Z,20.42
2017-08-10T02:02:50.270Z,20.21
2017-08-10T02:03:52.165Z,20.29
2017-08-10T02:04:54.038Z,20.26
2017-08-10T02:05:55.861Z,20.32
2017-08-10T02:06:57.695Z,20.23
2017-08-10T02:07:59.577Z,20.23
2017-08-10T02:09:01.462Z,20.32
2017-08-10T02:10:15.681Z,20.31
2017-08-10T02:11:17.578Z,20.35
2017-08-10T02:12:19.469Z,20.21
2017-08-10T02:13:21.364Z,20.31
2017-08-10T02:14:23.198Z,20.23
2017-08-10T02:15:25.024Z,20.20
2017-08-10T02:16:26.906Z,20.23
2017-08-10T02:17:28.786Z,20.24
2017-08-10T02:18:30.670Z,20.33
2017-08-10T02:19:44.854Z,20.36
2017-08-10T02:20:46.731Z,20.41
2017-08-10T02:21:48.622Z,20.38
2017-08-10T02:22:50.505Z,20.54
2017-08-10T02:23:52.327Z,20.59
2017-08-10T02:24:54.152Z,20.62
2017-08-10T02:25:56.042Z,20.57
2017-08-10T02:26:57.918Z,20.57
2017-08-10T02:27:59.803Z,20.54
2017-08-10T02:29:13.984Z,20.54
2017-08-10T02:30:15.863Z,20.54
2017-08-10T02:31:17.756Z,20.51
2017-08-10T02:32:19.651Z,20.29
2017-08-10T02:33:21.909Z,20.24
2017-08-10T02:34:23.758Z,20.17
2017-08-10T02:35:25.646Z,20.21
2017-08-10T02:36:27.521Z,20.16
2017-08-10T02:37:29.405Z,20.20
2017-08-10T02:38:43.567Z,20.21
2017-08-10T02:39:45.449Z,20.10
2017-08-10T02:40:47.667Z,20.13
2017-08-10T02:41:49.568Z,20.02
2017-08-10T02:42:51.390Z,20.10
2017-08-10T02:43:53.213Z,19.99
2017-08-10T02:44:55.093Z,20.02
2017-08-10T02:45:56.937Z,20.02
2017-08-10T02:46:58.767Z,20.06
2017-08-10T02:48:12.986Z,20.11
2017-08-10T02:49:14.872Z,20.17
2017-08-10T02:50:16.755Z,20.20
2017-08-10T02:51:18.638Z,20.08
2017-08-10T02:52:20.474Z,20.10
2017-08-10T02:53:22.309Z,20.02
2017-08-10T02:54:24.194Z,20.08
2017-08-10T02:55:26.077Z,20.11
2017-08-10T02:56:27.960Z,20.06
2017-08-10T02:57:42.119Z,19.95
2017-08-10T02:58:44.015Z,19.91
2017-08-10T02:59:45.908Z,19.95
2017-08-10T03:00:47.793Z,19.84
2017-08-10T03:01:49.613Z,19.71
2017-08-10T03:02:51.448Z,19.61
2017-08-10T03:03:53.330Z,19.59
2017-08-10T03:04:55.210Z,19.61
2017-08-10T03:05:57.094Z,19.54
2017-08-10T03:07:11.252Z,19.58
2017-08-10T03:08:13.150Z,19.50
2017-08-10T03:09:15.031Z,19.43
2017-08-10T03:10:16.915Z,19.28
2017-08-10T03:11:18.737Z,19.22
2017-08-10T03:12:20.571Z,19.22
2017-08-10T03:13:22.417Z,19.11
2017-08-10T03:14:24.260Z,19.22
2017-08-10T03:15:26.084Z,19.23
2017-08-10T03:16:40.251Z,19.44
2017-08-10T03:17:42.136Z,19.47
2017-08-10T03:18:44.029Z,19.50
2017-08-10T03:19:45.925Z,19.48
2017-08-10T03:20:47.751Z,19.58
2017-08-10T03:21:49.572Z,19.62
2017-08-10T03:22:51.467Z,19.59
2017-08-10T03:23:53.362Z,19.61
2017-08-10T03:24:55.246Z,19.55
2017-08-10T03:26:09.405Z,19.69
2017-08-10T03:27:11.301Z,19.68
2017-08-10T03:28:13.184Z,19.74
2017-08-10T03:29:15.068Z,19.92
2017-08-10T03:30:16.902Z,19.87
2017-08-10T03:31:18.727Z,19.94
2017-08-10T03:32:20.570Z,19.84
2017-08-10T03:33:22.392Z,19.83
2017-08-10T03:34:24.216Z,19.86
2017-08-10T03:35:38.413Z,19.92
2017-08-10T03:36:40.298Z,19.96
2017-08-10T03:37:42.191Z,19.81
2017-08-10T03:38:44.077Z,19.88
2017-08-10T03:39:45.899Z,19.71
2017-08-10T03:40:47.735Z,19.71
2017-08-10T03:41:49.618Z,19.63
2017-08-10T03:42:51.499Z,19.80
2017-08-10T03:43:53.395Z,19.87
2017-08-10T03:45:07.558Z,19.80
2017-08-10T03:46:09.445Z,19.76
2017-08-10T03:47:11.329Z,19.78
2017-08-10T03:48:13.225Z,19.81
2017-08-10T03:49:15.061Z,19.86
2017-08-10T03:50:16.888Z,19.91
2017-08-10T03:51:18.782Z,19.87
2017-08-10T03:52:20.680Z,19.94
2017-08-10T03:53:22.569Z,20.02
2017-08-10T03:54:36.730Z,20.06
2017-08-10T03:55:38.632Z,20.13
2017-08-10T03:56:40.518Z,20.13
2017-08-10T03:57:42.405Z,20.11
2017-08-10T03:58:44.243Z,20.23
2017-08-10T03:59:46.069Z,20.10
2017-08-10T04:00:47.954Z,20.06
2017-08-10T04:01:49.840Z,20.11
2017-08-10T04:02:51.726Z,20.10
2017-08-10T04:04:05.902Z,20.20
2017-08-10T04:05:07.790Z,20.20
2017-08-10T04:06:09.685Z,20.13
2017-08-10T04:07:11.574Z,20.18
2017-08-10T04:08:13.401Z,20.21
2017-08-10T04:09:15.228Z,20.20
2017-08-10T04:10:17.127Z,20.18
2017-08-10T04:11:19.021Z,20.24
2017-08-10T04:12:20.920Z,20.28
2017-08-10T04:13:35.084Z,20.21
2017-08-10T04:14:36.974Z,20.35
2017-08-10T04:15:38.861Z,20.18
2017-08-10T04:16:40.748Z,20.18
2017-08-10T04:17:42.575Z,20.23
2017-08-10T04:18:44.414Z,20.05
2017-08-10T04:19:46.301Z,20.01
2017-08-10T04:20:48.188Z,20.02
2017-08-10T04:21:50.087Z,19.92
2017-08-10T04:23:04.251Z,19.86
2017-08-10T04:24:06.140Z,19.78
2017-08-10T04:25:08.038Z,19.77
2017-08-10T04:26:09.937Z,19.78
2017-08-10T04:27:11.820Z,19.80
2017-08-10T04:28:13.653Z,19.74
2017-08-10T04:29:15.539Z,19.80
2017-08-10T04:30:17.424Z,19.92
2017-08-10T04:31:19.312Z,19.96
2017-08-10T04:32:33.477Z,20.05
2017-08-10T04:33:35.364Z,20.13
2017-08-10T04:34:37.253Z,20.11
2017-08-10T04:35:39.143Z,20.10
2017-08-10T04:36:40.967Z,20.13
2017-08-10T04:37:42.795Z,20.10
2017-08-10T04:38:44.693Z,19.96
2017-08-10T04:39:46.582Z,19.96
2017-08-10T04:40:48.466Z,19.99
2017-08-10T04:42:02.640Z,19.95
2017-08-10T04:43:04.531Z,20.06
2017-08-10T04:44:06.422Z,20.01
2017-08-10T04:45:08.313Z,19.91
2017-08-10T04:46:10.137Z,19.88
2017-08-10T04:47:11.977Z,19.91
2017-08-10T04:48:13.864Z,19.88
2017-08-10T04:49:15.749Z,19.87
2017-08-10T04:50:17.639Z,19.92
2017-08-10T04:51:31.817Z,20.03
2017-08-10T04:52:33.705Z,20.21
2017-08-10T04:53:35.593Z,20.38
2017-08-10T04:54:37.487Z,20.48
2017-08-10T04:55:39.313Z,20.55
2017-08-10T04:56:41.139Z,20.52
2017-08-10T04:57:43.027Z,20.69
2017-08-10T04:58:44.911Z,20.54
2017-08-10T04:59:46.811Z,20.57
2017-08-10T05:01:00.987Z,20.52
2017-08-10T05:02:02.878Z,20.54
2017-08-10T05:03:04.760Z,20.57
2017-08-10T05:04:06.648Z,20.57
2017-08-10T05:05:08.487Z,20.52
2017-08-10T05:06:10.316Z,20.51
2017-08-10T05:07:12.203Z,20.51
2017-08-10T05:08:14.090Z,20.50
2017-08-10T05:09:16.011Z,20.41
2017-08-10T05:10:30.162Z,20.47
2017-08-10T05:11:32.052Z,20.48
2017-08-10T05:12:33.945Z,20.54
2017-08-10T05:13:35.833Z,20.55
2017-08-10T05:14:37.662Z,20.64
2017-08-10T05:15:39.782Z,20.66
2017-08-10T05:16:41.651Z,20.54
2017-08-10T05:17:43.550Z,20.55
2017-08-10T05:18:45.439Z,20.57
2017-08-10T05:19:59.608Z,20.51
2017-08-10T05:21:01.494Z,20.52
2017-08-10T05:22:03.380Z,20.52
2017-08-10T05:23:05.269Z,20.52
2017-08-10T05:24:07.108Z,20.43
2017-08-10T05:25:09.405Z,20.43
2017-08-10T05:26:11.274Z,20.35
2017-08-10T05:27:13.161Z,20.28
2017-08-10T05:28:15.067Z,20.28
2017-08-10T05:29:29.230Z,20.20
2017-08-10T05:30:31.121Z,20.33
2017-08-10T05:31:33.023Z,20.31
2017-08-10T05:32:34.916Z,20.26
2017-08-10T05:33:36.745Z,20.20
2017-08-10T05:34:38.575Z,20.28
2017-08-10T05:35:40.464Z,20.23
2017-08-10T05:36:42.360Z,20.24
2017-08-10T05:37:44.270Z,20.23
2017-08-10T05:38:58.444Z,20.31
2017-08-10T05:40:00.332Z,20.39
2017-08-10T05:41:02.226Z,20.52
2017-08-10T05:42:04.117Z,20.59
2017-08-10T05:43:05.957Z,20.70
2017-08-10T05:44:07.797Z,20.59
2017-08-10T05:45:09.673Z,20.55
2017-08-10T05:46:11.572Z,20.52
2017-08-10T05:47:13.473Z,20.51
2017-08-10T05:48:27.687Z,20.48
2017-08-10T05:49:29.584Z,20.59
2017-08-10T05:50:31.470Z,20.58
2017-08-10T05:51:33.375Z,20.52
2017-08-10T05:52:35.200Z,20.54
2017-08-10T05:53:37.032Z,20.54
2017-08-10T05:54:38.938Z,20.54
2017-08-10T05:55:40.833Z,20.43
2017-08-10T05:56:42.720Z,20.47
2017-08-10T05:57:56.903Z,20.42
2017-08-10T05:58:58.788Z,20.31
2017-08-10T06:00:00.688Z,20.36
2017-08-10T06:01:02.582Z,20.43
2017-08-10T06:02:04.409Z,20.50
2017-08-10T06:03:06.238Z,20.52
2017-08-10T06:04:08.139Z,20.52
2017-08-10T06:05:10.026Z,20.58
2017-08-10T06:06:11.918Z,20.38
2017-08-10T06:07:26.084Z,20.31
2017-08-10T06:08:27.980Z,20.23
2017-08-10T06:09:29.866Z,20.29
2017-08-10T06:10:31.775Z,20.31
2017-08-10T06:11:33.597Z,20.36
2017-08-10T06:12:35.426Z,20.31
2017-08-10T06:13:37.315Z,20.38
2017-08-10T06:14:39.217Z,20.26
2017-08-10T06:15:41.105Z,20.26
2017-08-10T06:16:55.270Z,20.10
2017-08-10T06:17:57.162Z,20.23
2017-08-10T06:18:59.057Z,20.28
2017-08-10T06:20:00.959Z,20.36
2017-08-10T06:21:02.798Z,20.32
2017-08-10T06:22:04.622Z,20.38
2017-08-10T06:23:06.508Z,20.23
2017-08-10T06:24:08.401Z,20.08
2017-08-10T06:25:10.294Z,20.10
2017-08-10T06:26:24.457Z,20.06
2017-08-10T06:27:26.349Z,20.08
2017-08-10T06:28:28.250Z,20.16
2017-08-10T06:29:30.144Z,20.18
2017-08-10T06:30:31.974Z,20.14
2017-08-10T06:31:33.801Z,20.18
2017-08-10T06:32:35.703Z,20.21
2017-08-10T06:33:37.591Z,20.21
2017-08-10T06:34:39.483Z,20.16
2017-08-10T06:35:53.644Z,20.17
2017-08-10T06:36:55.535Z,20.24
2017-08-10T06:37:57.443Z,20.08
2017-08-10T06:38:59.347Z,20.10
2017-08-10T06:40:01.194Z,20.11
2017-08-10T06:41:03.014Z,20.06
2017-08-10T06:42:04.900Z,19.95
2017-08-10T06:43:06.794Z,19.98
2017-08-10T06:44:08.683Z,19.94
2017-08-10T06:45:22.907Z,20.01
2017-08-10T06:46:24.800Z,19.94
2017-08-10T06:47:26.688Z,19.95
2017-08-10T06:48:28.591Z,19.98
2017-08-10T06:49:30.416Z,19.92
2017-08-10T06:50:32.271Z,19.84
2017-08-10T06:51:34.159Z,19.91
2017-08-10T06:52:36.049Z,19.87
2017-08-10T06:53:37.953Z,19.91
2017-08-10T06:54:52.132Z,19.95
2017-08-10T06:55:54.022Z,19.98
2017-08-10T06:56:55.916Z,20.02
2017-08-10T06:57:57.811Z,19.96
2017-08-10T06:58:59.640Z,20.10
2017-08-10T07:00:01.470Z,20.17
2017-08-10T07:01:03.364Z,20.21
2017-08-10T07:02:05.254Z,20.29
2017-08-10T07:03:07.152Z,20.32
2017-08-10T07:04:21.312Z,20.33
2017-08-10T07:05:23.203Z,20.33
2017-08-10T07:06:25.091Z,20.36
2017-08-10T07:07:26.983Z,20.29
2017-08-10T07:08:28.814Z,20.31
2017-08-10T07:09:30.647Z,20.42
2017-08-10T07:10:32.542Z,20.51
2017-08-10T07:11:34.441Z,20.57
2017-08-10T07:12:36.336Z,20.66
2017-08-10T07:13:50.499Z,20.70
2017-08-10T07:14:52.391Z,20.74
2017-08-10T07:15:54.284Z,20.61
2017-08-10T07:16:56.169Z,20.57
2017-08-10T07:17:57.994Z,20.67
2017-08-10T07:18:59.821Z,20.59
2017-08-10T07:20:01.711Z,20.70
2017-08-10T07:21:03.595Z,20.82
2017-08-10T07:22:05.483Z,20.70
2017-08-10T07:23:19.646Z,20.72
2017-08-10T07:24:21.537Z,20.59
2017-08-10T07:25:23.436Z,20.61
2017-08-10T07:26:25.327Z,20.69
2017-08-10T07:27:27.159Z,20.82
2017-08-10T07:28:28.989Z,20.79
2017-08-10T07:29:30.884Z,20.80
2017-08-10T07:30:32.764Z,20.85
2017-08-10T07:31:34.652Z,20.76
2017-08-10T07:32:48.871Z,20.80
2017-08-10T07:33:50.761Z,20.85
2017-08-10T07:34:52.659Z,20.76
2017-08-10T07:35:54.559Z,20.89
2017-08-10T07:36:56.390Z,20.79
2017-08-10T07:37:58.220Z,20.91
2017-08-10T07:39:00.120Z,20.77
2017-08-10T07:40:02.008Z,20.82
2017-08-10T07:41:03.902Z,20.88
2017-08-10T07:42:18.067Z,20.91
2017-08-10T07:43:19.958Z,20.88
2017-08-10T07:44:21.860Z,20.79
2017-08-10T07:45:23.752Z,20.76
2017-08-10T07:46:25.583Z,20.73
2017-08-10T07:47:27.412Z,20.70
2017-08-10T07:48:29.302Z,20.82
2017-08-10T07:49:31.190Z,20.79
2017-08-10T07:50:33.094Z,20.82
2017-08-10T07:51:47.258Z,20.89
2017-08-10T07:52:49.150Z,20.76
2017-08-10T07:53:51.052Z,20.80
2017-08-10T07:54:52.956Z,20.88
2017-08-10T07:55:54.772Z,20.99
2017-08-10T07:56:56.614Z,20.94
2017-08-10T07:57:58.508Z,21.07
2017-08-10T07:59:00.399Z,21.01
2017-08-10T08:00:02.403Z,21.03
2017-08-10T08:01:16.572Z,21.01
2017-08-10T08:02:18.468Z,20.99
2017-08-10T08:03:20.362Z,21.01
2017-08-10T08:04:22.256Z,21.03
2017-08-10T08:05:24.085Z,21.09
2017-08-10T08:06:25.924Z,21.16
2017-08-10T08:07:27.809Z,21.22
2017-08-10T08:08:29.702Z,21.21
2017-08-10T08:09:31.596Z,21.14
2017-08-10T08:10:45.761Z,21.16
2017-08-10T08:11:47.657Z,21.19
2017-08-10T08:12:49.560Z,21.27
2017-08-10T08:13:51.456Z,21.29
2017-08-10T08:14:53.285Z,21.34
2017-08-10T08:15:55.116Z,21.38
2017-08-10T08:16:57.009Z,21.38
2017-08-10T08:17:58.899Z,21.29
2017-08-10T08:19:00.793Z,21.10
2017-08-10T08:20:15.009Z,21.16
2017-08-10T08:21:16.943Z,21.22
2017-08-10T08:22:18.820Z,21.40
2017-08-10T08:23:20.715Z,21.42
2017-08-10T08:24:22.543Z,21.53
2017-08-10T08:25:24.374Z,21.72
2017-08-10T08:26:26.287Z,21.77
2017-08-10T08:27:28.169Z,21.80
2017-08-10T08:28:30.066Z,21.77
2017-08-10T08:29:44.233Z,21.83
2017-08-10T08:30:46.143Z,21.74
2017-08-10T08:31:48.030Z,21.69
2017-08-10T08:32:49.934Z,21.52
2017-08-10T08:33:51.763Z,21.49
2017-08-10T08:34:53.605Z,21.52
2017-08-10T08:35:55.498Z,21.53
2017-08-10T08:36:57.397Z,21.50
2017-08-10T08:37:59.314Z,21.59
2017-08-10T08:39:13.492Z,21.65
2017-08-10T08:40:15.376Z,21.56
2017-08-10T08:41:17.269Z,21.49
2017-08-10T08:42:19.162Z,21.54
2017-08-10T08:43:20.990Z,21.65
2017-08-10T08:44:22.821Z,21.71
2017-08-10T08:45:24.713Z,21.79
2017-08-10T08:46:26.604Z,21.71
2017-08-10T08:47:28.497Z,21.69
2017-08-10T08:48:42.675Z,21.79
2017-08-10T08:49:44.568Z,21.65
2017-08-10T08:50:46.470Z,21.77
2017-08-10T08:51:48.367Z,21.86
2017-08-10T08:52:50.195Z,21.90
2017-08-10T08:53:52.024Z,21.86
2017-08-10T08:54:53.920Z,21.92
2017-08-10T08:55:55.816Z,22.00
2017-08-10T08:56:57.709Z,22.03
2017-08-10T08:58:11.927Z,22.03
2017-08-10T08:59:13.823Z,21.92
2017-08-10T09:00:15.713Z,21.92
2017-08-10T09:01:17.607Z,22.03
2017-08-10T09:02:19.436Z,22.02
2017-08-10T09:03:21.265Z,22.15
2017-08-10T09:04:23.158Z,21.99
2017-08-10T09:05:25.049Z,21.98
2017-08-10T09:06:26.948Z,21.91
2017-08-10T09:07:41.111Z,21.82
2017-08-10T09:08:43.000Z,21.74
2017-08-10T09:09:44.901Z,21.75
2017-08-10T09:10:46.807Z,21.94
2017-08-10T09:11:48.633Z,21.87
2017-08-10T09:12:50.477Z,21.79
2017-08-10T09:13:52.306Z,21.77
2017-08-10T09:14:54.205Z,21.90
2017-08-10T09:15:56.096Z,21.87
2017-08-10T09:17:10.263Z,21.77
2017-08-10T09:18:12.156Z,21.84
2017-08-10T09:19:14.059Z,22.00
2017-08-10T09:20:15.952Z,22.06
2017-08-10T09:21:17.783Z,22.20
2017-08-10T09:22:19.612Z,22.21
2017-08-10T09:23:21.516Z,22.14
2017-08-10T09:24:23.411Z,22.00
2017-08-10T09:25:25.306Z,21.82
2017-08-10T09:26:39.470Z,21.75
2017-08-10T09:27:41.364Z,21.74
2017-08-10T09:28:43.268Z,21.79
2017-08-10T09:29:45.166Z,21.90
2017-08-10T09:30:46.992Z,21.98
2017-08-10T09:31:48.823Z,22.03
2017-08-10T09:32:50.721Z,22.06
2017-08-10T09:33:52.611Z,22.02
2017-08-10T09:34:54.508Z,22.02
2017-08-10T09:36:08.679Z,22.12
2017-08-10T09:37:10.572Z,22.14
2017-08-10T09:38:12.474Z,22.15
2017-08-10T09:39:14.369Z,22.18
2017-08-10T09:40:16.199Z,22.35
2017-08-10T09:41:18.031Z,22.33
2017-08-10T09:42:19.926Z,22.39
2017-08-10T09:43:21.819Z,22.30
2017-08-10T09:44:23.712Z,22.43
2017-08-10T09:45:37.931Z,22.46
2017-08-10T09:46:39.825Z,22.55
2017-08-10T09:47:41.716Z,22.64
2017-08-10T09:48:43.621Z,22.77
2017-08-10T09:49:45.451Z,22.85
2017-08-10T09:50:47.283Z,23.00
2017-08-10T09:51:49.177Z,23.09
2017-08-10T09:52:51.071Z,23.25
2017-08-10T09:53:52.981Z,23.27
2017-08-10T09:55:07.147Z,23.54
2017-08-10T09:56:09.043Z,23.73
2017-08-10T09:57:10.946Z,23.79
2017-08-10T09:58:12.849Z,23.73
2017-08-10T09:59:14.680Z,23.61
2017-08-10T10:00:16.511Z,23.51
2017-08-10T10:01:18.403Z,23.33
2017-08-10T10:02:20.296Z,23.22
2017-08-10T10:03:22.193Z,23.20
2017-08-10T10:04:36.362Z,23.20
2017-08-10T10:05:38.260Z,23.22
2017-08-10T10:06:40.164Z,23.42
2017-08-10T10:07:42.070Z,23.43
2017-08-10T10:08:43.901Z,23.48
2017-08-10T10:09:45.737Z,23.46
2017-08-10T10:10:47.627Z,23.54
2017-08-10T10:11:49.524Z,23.51
2017-08-10T10:12:51.422Z,23.47
2017-08-10T10:14:05.588Z,23.51
2017-08-10T10:15:07.485Z,23.55
2017-08-10T10:16:09.390Z,23.76
2017-08-10T10:17:11.297Z,23.78
2017-08-10T10:18:13.130Z,23.79
2017-08-10T10:19:14.961Z,23.93
2017-08-10T10:20:16.870Z,24.02
2017-08-10T10:21:18.763Z,24.12
2017-08-10T10:22:20.663Z,24.03
2017-08-10T10:23:34.832Z,24.02
2017-08-10T10:24:36.730Z,23.94
2017-08-10T10:25:38.626Z,23.97
2017-08-10T10:26:40.532Z,23.94
2017-08-10T10:27:42.365Z,23.78
2017-08-10T10:28:44.200Z,23.85
2017-08-10T10:29:46.117Z,23.95
2017-08-10T10:30:47.993Z,23.90
2017-08-10T10:31:49.887Z,23.87
2017-08-10T10:33:04.068Z,24.13
2017-08-10T10:34:05.967Z,24.20
2017-08-10T10:35:07.872Z,24.34
2017-08-10T10:36:09.767Z,24.47
2017-08-10T10:37:11.600Z,24.57
2017-08-10T10:38:13.474Z,24.55
2017-08-10T10:39:15.308Z,24.53
2017-08-10T10:40:17.201Z,24.57
2017-08-10T10:41:19.098Z,24.58
2017-08-10T10:42:33.273Z,24.52
2017-08-10T10:43:35.178Z,24.43
2017-08-10T10:44:37.068Z,24.50
2017-08-10T10:45:38.975Z,24.42
2017-08-10T10:46:40.808Z,24.31
2017-08-10T10:47:42.641Z,24.20
2017-08-10T10:48:44.535Z,24.22
2017-08-10T10:49:46.432Z,24.35
2017-08-10T10:50:48.330Z,24.47
2017-08-10T10:52:02.497Z,24.50
2017-08-10T10:53:04.395Z,24.67
2017-08-10T10:54:06.288Z,24.53
2017-08-10T10:55:08.184Z,24.68
2017-08-10T10:56:10.024Z,24.85
2017-08-10T10:57:11.850Z,24.83
2017-08-10T10:58:13.750Z,24.83
2017-08-10T10:59:15.642Z,24.73
2017-08-10T11:00:17.539Z,24.53
2017-08-10T11:01:31.708Z,24.34
2017-08-10T11:02:33.602Z,24.39
2017-08-10T11:03:35.497Z,24.45
2017-08-10T11:04:37.395Z,24.43
2017-08-10T11:05:39.231Z,24.20
2017-08-10T11:06:41.061Z,24.16
2017-08-10T11:07:42.958Z,24.13
2017-08-10T11:08:44.852Z,24.02
2017-08-10T11:09:46.757Z,24.10
2017-08-10T11:11:00.928Z,23.98
2017-08-10T11:12:02.826Z,23.95
2017-08-10T11:13:04.721Z,23.79
2017-08-10T11:14:06.625Z,23.75
2017-08-10T11:15:08.454Z,23.75
2017-08-10T11:16:10.295Z,23.87
2017-08-10T11:17:12.189Z,23.93
2017-08-10T11:18:14.093Z,23.76
2017-08-10T11:19:15.978Z,23.75
2017-08-10T11:20:30.159Z,23.65
2017-08-10T11:21:32.056Z,23.61
2017-08-10T11:22:33.949Z,23.55
2017-08-10T11:23:35.857Z,23.48
2017-08-10T11:24:37.688Z,23.57
2017-08-10T11:25:39.521Z,23.57
2017-08-10T11:26:41.417Z,23.65
2017-08-10T11:27:43.311Z,23.78
2017-08-10T11:28:45.206Z,23.65
2017-08-10T11:29:59.380Z,23.68
2017-08-10T11:31:01.275Z,23.76
2017-08-10T11:32:03.170Z,23.76
2017-08-10T11:33:05.076Z,23.76
2017-08-10T11:34:06.910Z,23.76
2017-08-10T11:35:08.744Z,23.76
2017-08-10T11:36:10.664Z,23.75
2017-08-10T11:37:12.581Z,23.84
2017-08-10T11:38:14.477Z,23.79
2017-08-10T11:39:28.648Z,23.83
2017-08-10T11:40:30.544Z,23.80
2017-08-10T11:41:32.450Z,23.93
2017-08-10T11:42:34.349Z,23.87
2017-08-10T11:43:36.177Z,23.95
2017-08-10T11:44:38.033Z,23.98
2017-08-10T11:45:39.935Z,23.94
2017-08-10T11:46:41.841Z,23.87
2017-08-10T11:47:43.738Z,23.78
2017-08-10T11:48:57.906Z,23.98
2017-08-10T11:49:59.807Z,24.18
2017-08-10T11:51:01.697Z,24.34
2017-08-10T11:52:03.593Z,24.31
2017-08-10T11:53:05.426Z,24.27
2017-08-10T11:54:07.256Z,24.25
2017-08-10T11:55:09.150Z,24.15
2017-08-10T11:56:11.087Z,24.10
2017-08-10T11:57:12.967Z,24.08
2017-08-10T11:58:27.145Z,23.97
2017-08-10T11:59:29.109Z,23.80
2017-08-10T12:00:31.003Z,23.54
2017-08-10T12:01:32.902Z,23.47
2017-08-10T12:02:34.731Z,23.46
2017-08-10T12:03:36.667Z,23.38
2017-08-10T12:04:38.549Z,23.50
2017-08-10T12:05:40.447Z,23.58
2017-08-10T12:06:42.345Z,23.39
2017-08-10T12:07:56.526Z,23.23
2017-08-10T12:08:58.404Z,23.33
2017-08-10T12:10:00.308Z,23.43
2017-08-10T12:11:02.209Z,23.53
2017-08-10T12:12:04.045Z,23.57
2017-08-10T12:13:05.877Z,23.63
2017-08-10T12:14:07.773Z,23.48
2017-08-10T12:15:09.667Z,23.57
2017-08-10T12:16:11.576Z,23.54
2017-08-10T12:17:25.784Z,23.66
2017-08-10T12:18:27.682Z,23.70
2017-08-10T12:19:29.580Z,23.58
2017-08-10T12:20:31.474Z,23.65
2017-08-10T12:21:33.308Z,23.78
2017-08-10T12:22:35.153Z,23.84
2017-08-10T12:23:37.043Z,23.76
2017-08-10T12:24:38.941Z,23.65
2017-08-10T12:25:40.837Z,23.72
2017-08-10T12:26:55.054Z,23.75
2017-08-10T12:27:57.027Z,23.72
2017-08-10T12:28:58.913Z,23.83
2017-08-10T12:30:00.811Z,23.91
2017-08-10T12:31:02.648Z,23.95
2017-08-10T12:32:04.480Z,23.84
2017-08-10T12:33:06.375Z,23.88
2017-08-10T12:34:08.267Z,23.93
2017-08-10T12:35:10.168Z,23.84
2017-08-10T12:36:24.337Z,23.60
2017-08-10T12:37:26.237Z,23.58
2017-08-10T12:38:28.127Z,23.51
2017-08-10T12:39:30.029Z,23.60
2017-08-10T12:40:31.875Z,23.73
2017-08-10T12:41:33.730Z,23.83
2017-08-10T12:42:35.949Z,23.97
2017-08-10T12:43:37.835Z,24.09
2017-08-10T12:44:39.757Z,24.06
2017-08-10T12:45:53.980Z,24.13
2017-08-10T12:46:55.912Z,24.00
2017-08-10T12:47:58.182Z,24.13
2017-08-10T12:49:00.086Z,24.09
2017-08-10T12:50:01.918Z,23.94
2017-08-10T12:51:03.760Z,23.76
2017-08-10T12:52:05.665Z,23.72
2017-08-10T12:53:07.542Z,23.79
2017-08-10T12:54:09.374Z,23.98
2017-08-10T12:55:23.542Z,24.06
2017-08-10T12:56:25.466Z,24.02
2017-08-10T12:57:27.376Z,23.98
2017-08-10T12:58:29.347Z,23.69
2017-08-10T12:59:31.218Z,23.60
2017-08-10T13:00:33.370Z,23.48
2017-08-10T13:01:35.857Z,23.51
2017-08-10T13:02:37.736Z,23.55
2017-08-10T13:03:39.645Z,23.53
2017-08-10T13:04:54.190Z,23.63
2017-08-10T13:05:56.124Z,23.68
2017-08-10T13:06:58.335Z,23.60
2017-08-10T13:08:00.203Z,23.48
2017-08-10T13:09:02.351Z,23.27
2017-08-10T13:10:04.171Z,23.15
2017-08-10T13:11:06.082Z,23.23
2017-08-10T13:12:08.287Z,23.07
2017-08-10T13:13:10.209Z,23.07
2017-08-10T13:14:24.548Z,23.04
2017-08-10T13:15:26.454Z,22.98
2017-08-10T13:16:28.363Z,23.01
2017-08-10T13:17:30.942Z,23.02
2017-08-10T13:18:33.174Z,22.88
2017-08-10T13:19:35.045Z,22.83
2017-08-10T13:20:36.940Z,22.91
2017-08-10T13:21:38.849Z,23.13
2017-08-10T13:22:40.748Z,23.28
2017-08-10T13:23:54.916Z,23.39
2017-08-10T13:24:56.809Z,23.57
2017-08-10T13:25:58.701Z,23.54
2017-08-10T13:27:00.598Z,23.57
2017-08-10T13:28:02.429Z,23.53
2017-08-10T13:29:04.264Z,23.42
2017-08-10T13:30:06.156Z,23.39
2017-08-10T13:31:08.054Z,23.25
2017-08-10T13:32:09.949Z,23.20
2017-08-10T13:33:24.134Z,23.25
2017-08-10T13:34:26.015Z,23.35